Airfield :
LOGIN :

Register | Disclaimer

   EN    FR    IT 

 










Legend :    VFR   Marginal VFR   IFR   Intensive IFR   Very Intensive IFR
Visi :
Ceiling :
>= 8 km
>= 3000ft
5 to 8 km
1000 to 3000 ft
1500m to 5 km
500 to 1000 ft
800 to 1500m
200 to 500 ft
< 800m
< 200 ft
Symbols :   Thunderstorms  Fog  Heavy snow  Heavy precipitations  Wind > 20 kt
SIGMETs :     Misc.  Thunderstorms  Icing  Turbulence  Mountain Waves  Volcanic Ashes







- Airport Elevation : 436 ft
- IATA code : ANG
- Download approach charts


LFBU - Angoulême Brie Champniers

CURRENT METAR :
  • 220900Z AUTO 17007KT 130V190 CAVOK 09/05 Q1012 NOSIG

EXPIRED METARs :
  • 220830Z AUTO 16007KT 130V190 CAVOK 08/05 Q1012 NOSIG
  • 220800Z AUTO 15004KT 090V190 CAVOK 06/04 Q1012 NOSIG
  • 220730Z AUTO 14004KT 110V190 CAVOK 05/04 Q1012 NOSIG
  • 220700Z AUTO 12005KT CAVOK 05/04 Q1012 NOSIG
  • 220630Z AUTO 13005KT 100V160 CAVOK 05/04 Q1013 NOSIG

TAF TAF LFBU
Valid from the 22 at 06:00 until the 23 at 06:00 UTC


220500Z 2206/2306 16008KT 5000 NSC
PROB30
TEMPO 2206/2207 0800 BCFG
BECMG 2207/2209 CAVOK
BECMG 2210/2212 16010G25KT
TEMPO 2220/2304 18015G35KT
No reported NOTAMs for that airfield.



MET'MAP, your aeronautical weather chart ! - Copyright ORBIFLY December 2007 - Disclaimer

ORBIFLY MET'MAP TEAM :

Programming & Development : Alexandra Zaïnal
Concept & Development : Baudouin d'Aumeries
Co-Development & Prog : Marc-Olivier Méhu
Technical & hardware support : Manuel Goepfert

Contact : metmap@orbifly.com




SOURCES & CREDITS :

   NOAA